Time;durP1;ratioP1;P1;durP2;ratioP2;P2;SDS_P1;SDS_P2;PMS_P1;PMS_P2;Temp;Humidity;BMP_temperature;BMP_pressure;BME280_temperature;BME280_humidity;BME280_pressure;Samples;Min_cycle;Max_cycle;Signal;HPM_P1;HPM_P2
2023/01/26 00:01:09;;;;;;;16.20;9.17;;;;;;;;;;5048542;28;20243;-76
2023/01/26 00:03:37;;;;;;;13.83;9.07;;;;;;;;;;5051496;28;20213;-76
2023/01/26 00:06:05;;;;;;;14.33;8.90;;;;;;;;;;5043806;28;20237;-76
2023/01/26 00:08:38;;;;;;;17.03;9.33;;;;;;;;;;5046570;28;20623;-76
2023/01/26 00:11:06;;;;;;;19.20;9.63;;;;;;;;;;5046247;28;20682;-77
2023/01/26 00:13:34;;;;;;;15.03;9.13;;;;;;;;;;5043845;28;20214;-77
2023/01/26 00:16:02;;;;;;;16.07;9.40;;;;;;;;;;5048521;28;20210;-77
2023/01/26 00:18:30;;;;;;;27.47;14.47;;;;;;;;;;5042529;28;20210;-75
2023/01/26 00:21:02;;;;;;;17.37;8.50;;;;;;;;;;5046299;28;20236;-76
2023/01/26 00:23:30;;;;;;;15.77;8.43;;;;;;;;;;5045503;28;20299;-77
2023/01/26 00:25:57;;;;;;;20.03;11.23;;;;;;;;;;5048908;28;20236;-77
2023/01/26 00:28:24;;;;;;;14.70;8.87;;;;;;;;;;5045655;28;20201;-77
2023/01/26 00:30:52;;;;;;;15.10;8.17;;;;;;;;;;5046310;28;20217;-75
2023/01/26 00:33:20;;;;;;;15.10;8.63;;;;;;;;;;5049622;28;20208;-76
2023/01/26 00:35:53;;;;;;;13.63;7.90;;;;;;;;;;5049066;28;20572;-75
2023/01/26 00:38:21;;;;;;;16.00;9.50;;;;;;;;;;5045915;28;20215;-77
2023/01/26 00:40:48;;;;;;;17.40;9.17;;;;;;;;;;5037071;28;20225;-75
2023/01/26 00:43:15;;;;;;;17.03;8.80;;;;;;;;;;5044345;28;20212;-74
2023/01/26 00:45:43;;;;;;;15.83;9.20;;;;;;;;;;5043322;28;20874;-77
2023/01/26 00:48:10;;;;;;;19.77;10.80;;;;;;;;;;5044389;28;20229;-76
2023/01/26 00:50:37;;;;;;;16.47;9.17;;;;;;;;;;5036652;28;20239;-76
2023/01/26 00:53:04;;;;;;;20.87;10.23;;;;;;;;;;5039079;28;20209;-75
2023/01/26 00:55:32;;;;;;;16.47;9.10;;;;;;;;;;5036436;28;20328;-76
2023/01/26 00:58:00;;;;;;;15.93;8.83;;;;;;;;;;5039556;28;20300;-76
2023/01/26 01:00:27;;;;;;;20.50;9.97;;;;;;;;;;5041335;28;20236;-75
2023/01/26 01:02:55;;;;;;;17.90;9.40;;;;;;;;;;5042442;28;20209;-76
2023/01/26 01:05:25;;;;;;;18.17;9.53;;;;;;;;;;5040815;28;20537;-77
2023/01/26 01:07:52;;;;;;;16.83;9.23;;;;;;;;;;5042787;28;20263;-77
2023/01/26 01:10:19;;;;;;;16.63;9.27;;;;;;;;;;5049322;28;20291;-77
2023/01/26 01:12:46;;;;;;;16.57;8.80;;;;;;;;;;5037326;28;20222;-75
2023/01/26 01:15:14;;;;;;;16.27;9.63;;;;;;;;;;5045396;28;20219;-77
2023/01/26 01:17:41;;;;;;;20.33;11.07;;;;;;;;;;5041315;28;20296;-75
2023/01/26 01:20:09;;;;;;;20.03;10.27;;;;;;;;;;5040154;28;20216;-76
2023/01/26 01:22:38;;;;;;;19.70;9.77;;;;;;;;;;5039912;28;20213;-75
2023/01/26 01:25:05;;;;;;;17.07;9.80;;;;;;;;;;5043477;28;20696;-76
2023/01/26 01:27:32;;;;;;;17.40;9.10;;;;;;;;;;5039888;28;20202;-75
2023/01/26 01:30:06;;;;;;;18.10;10.00;;;;;;;;;;5049639;28;20212;-75
2023/01/26 01:32:34;;;;;;;17.13;10.00;;;;;;;;;;5049059;28;20292;-75
2023/01/26 01:35:02;;;;;;;16.10;9.40;;;;;;;;;;5063492;28;20211;-77
2023/01/26 01:37:32;;;;;;;17.10;9.83;;;;;;;;;;5062338;28;20201;-77
2023/01/26 01:39:59;;;;;;;18.13;9.70;;;;;;;;;;5062744;28;20410;-77
2023/01/26 01:42:26;;;;;;;16.30;9.10;;;;;;;;;;5062980;28;20297;-75
2023/01/26 01:45:13;;;;;;;16.90;9.43;;;;;;;;;;5047659;28;20221;-77
2023/01/26 01:47:40;;;;;;;15.67;8.93;;;;;;;;;;5048140;28;20204;-76
2023/01/26 01:50:14;;;;;;;17.33;9.23;;;;;;;;;;5044460;28;20201;-77
2023/01/26 01:52:42;;;;;;;22.23;11.73;;;;;;;;;;5045489;28;20208;-75
2023/01/26 01:55:09;;;;;;;24.83;13.43;;;;;;;;;;5040766;28;20275;-76
2023/01/26 01:57:46;;;;;;;20.00;10.40;;;;;;;;;;5039069;28;23627;-77
2023/01/26 02:00:18;;;;;;;19.00;10.40;;;;;;;;;;5038747;28;20208;-76
2023/01/26 02:03:09;;;;;;;17.93;9.50;;;;;;;;;;5039498;28;20224;-76
2023/01/26 02:05:38;;;;;;;16.93;9.53;;;;;;;;;;5035474;28;20237;-76
2023/01/26 02:08:08;;;;;;;23.00;10.50;;;;;;;;;;5042999;28;20215;-76
2023/01/26 02:10:36;;;;;;;19.17;10.67;;;;;;;;;;5039353;28;20772;-76
2023/01/26 02:13:05;;;;;;;20.10;10.07;;;;;;;;;;5041384;28;20300;-77
2023/01/26 02:15:32;;;;;;;21.70;10.77;;;;;;;;;;5043293;28;20227;-75
2023/01/26 02:18:01;;;;;;;19.10;9.73;;;;;;;;;;5037083;28;20216;-76
2023/01/26 02:20:31;;;;;;;16.03;9.57;;;;;;;;;;5041794;28;20232;-77
2023/01/26 02:23:08;;;;;;;19.87;10.83;;;;;;;;;;5040715;28;20266;-76
2023/01/26 02:25:56;;;;;;;15.70;9.43;;;;;;;;;;5047144;28;20655;-77
2023/01/26 02:28:27;;;;;;;17.70;9.23;;;;;;;;;;5038133;28;20212;-75
2023/01/26 02:30:55;;;;;;;16.73;10.50;;;;;;;;;;5046157;28;20227;-75
2023/01/26 02:33:24;;;;;;;17.30;9.93;;;;;;;;;;5043586;28;20280;-78
2023/01/26 02:35:51;;;;;;;18.97;10.60;;;;;;;;;;5045757;28;20269;-78
2023/01/26 02:38:19;;;;;;;16.67;9.73;;;;;;;;;;5044550;28;20209;-76
2023/01/26 02:40:58;;;;;;;18.97;10.10;;;;;;;;;;5043806;28;20229;-77
2023/01/26 02:43:26;;;;;;;17.40;9.50;;;;;;;;;;5047601;28;20219;-77
2023/01/26 02:45:54;;;;;;;16.43;9.90;;;;;;;;;;5045567;28;20258;-76
2023/01/26 02:51:08;;;;;;;18.77;10.40;;;;;;;;;;5047303;28;20227;-76
2023/01/26 02:53:35;;;;;;;16.90;10.07;;;;;;;;;;5045991;28;20204;-76
2023/01/26 02:56:03;;;;;;;20.33;11.07;;;;;;;;;;5043606;28;20761;-75
2023/01/26 02:58:30;;;;;;;19.00;10.33;;;;;;;;;;5043070;28;20205;-76
2023/01/26 03:00:57;;;;;;;17.97;10.50;;;;;;;;;;5041668;28;20236;-75
2023/01/26 03:03:40;;;;;;;18.67;10.07;;;;;;;;;;5045031;28;20216;-76
2023/01/26 03:06:08;;;;;;;14.73;8.57;;;;;;;;;;5043207;28;20237;-75
2023/01/26 03:08:36;;;;;;;17.30;9.60;;;;;;;;;;5028317;28;20217;-76
2023/01/26 03:11:04;;;;;;;16.03;9.17;;;;;;;;;;5040648;28;20314;-75
2023/01/26 03:13:31;;;;;;;17.70;9.70;;;;;;;;;;5040180;28;20351;-77
2023/01/26 03:16:05;;;;;;;13.53;8.37;;;;;;;;;;5044011;28;20799;-77
2023/01/26 03:29:42;;;;;;;18.47;9.47;;;;;;;;;;5041114;28;20201;-76
2023/01/26 03:32:09;;;;;;;16.20;8.87;;;;;;;;;;5043680;28;20308;-75
2023/01/26 03:34:36;;;;;;;16.03;9.47;;;;;;;;;;5066207;28;20281;-76
2023/01/26 03:37:04;;;;;;;17.63;9.20;;;;;;;;;;5070294;28;20212;-77
2023/01/26 03:56:23;;;;;;;18.60;9.83;;;;;;;;;;5064636;28;20207;-77
2023/01/26 03:58:52;;;;;;;19.90;10.43;;;;;;;;;;5063437;28;20787;-74
2023/01/26 04:01:20;;;;;;;19.20;9.90;;;;;;;;;;5069658;28;20227;-76
2023/01/26 04:09:21;;;;;;;17.70;10.23;;;;;;;;;;5073384;28;20211;-77
2023/01/26 04:11:48;;;;;;;23.20;11.20;;;;;;;;;;5070772;28;20915;-77
2023/01/26 04:22:49;;;;;;;18.17;9.07;;;;;;;;;;5049960;28;20212;-77
2023/01/26 04:25:18;;;;;;;20.07;9.87;;;;;;;;;;5042679;28;20263;-77
2023/01/26 04:28:10;;;;;;;21.03;10.30;;;;;;;;;;5045697;28;20728;-75
2023/01/26 04:30:38;;;;;;;17.93;9.80;;;;;;;;;;5047176;28;20480;-77
2023/01/26 04:33:05;;;;;;;15.70;9.03;;;;;;;;;;5047726;28;20200;-74
2023/01/26 04:35:33;;;;;;;14.70;8.43;;;;;;;;;;5044414;28;20240;-77
2023/01/26 04:38:00;;;;;;;18.50;9.03;;;;;;;;;;5045531;28;20206;-75
2023/01/26 04:40:27;;;;;;;19.60;10.20;;;;;;;;;;5048852;28;20744;-77
2023/01/26 04:42:54;;;;;;;18.40;9.97;;;;;;;;;;5046958;28;20277;-75
2023/01/26 04:45:22;;;;;;;19.70;10.70;;;;;;;;;;5039554;28;20218;-76
2023/01/26 04:47:49;;;;;;;15.00;9.13;;;;;;;;;;5042438;28;20202;-77
2023/01/26 04:50:17;;;;;;;20.73;11.00;;;;;;;;;;5042551;28;20213;-76
2023/01/26 04:52:44;;;;;;;15.97;9.73;;;;;;;;;;5022983;28;20677;-76
2023/01/26 04:55:11;;;;;;;18.20;10.33;;;;;;;;;;5046285;28;20211;-75
2023/01/26 04:57:38;;;;;;;16.37;8.70;;;;;;;;;;5036521;28;20337;-77
2023/01/26 05:00:07;;;;;;;13.63;8.70;;;;;;;;;;5042149;28;20203;-76
2023/01/26 05:02:34;;;;;;;14.97;9.87;;;;;;;;;;5037797;28;20484;-76
2023/01/26 05:05:01;;;;;;;14.53;9.53;;;;;;;;;;5042782;28;20279;-76
2023/01/26 05:07:29;;;;;;;17.47;10.70;;;;;;;;;;5039137;28;22785;-76
2023/01/26 05:09:56;;;;;;;16.07;9.00;;;;;;;;;;5042316;28;20204;-75
2023/01/26 05:12:32;;;;;;;16.33;9.33;;;;;;;;;;5041945;28;20226;-76
2023/01/26 05:14:59;;;;;;;18.30;9.57;;;;;;;;;;5043984;28;20202;-75
2023/01/26 05:17:26;;;;;;;16.40;9.30;;;;;;;;;;5041703;28;20214;-76
2023/01/26 05:19:54;;;;;;;18.30;10.27;;;;;;;;;;5040372;28;20225;-76
2023/01/26 05:22:21;;;;;;;17.53;9.53;;;;;;;;;;5044697;28;20373;-77
2023/01/26 05:24:48;;;;;;;18.77;11.43;;;;;;;;;;5047081;28;20297;-77
2023/01/26 05:27:21;;;;;;;19.97;11.17;;;;;;;;;;5014992;28;20243;-77
2023/01/26 05:29:49;;;;;;;16.57;10.03;;;;;;;;;;5042484;28;20252;-75
2023/01/26 05:32:16;;;;;;;14.43;9.20;;;;;;;;;;5040352;28;22626;-78
2023/01/26 05:34:44;;;;;;;16.13;9.40;;;;;;;;;;5070717;28;20200;-79
2023/01/26 05:37:11;;;;;;;15.63;9.67;;;;;;;;;;5045983;28;20197;-77
2023/01/26 05:39:41;;;;;;;15.87;9.17;;;;;;;;;;5072643;28;20879;-78
2023/01/26 05:42:10;;;;;;;16.37;8.97;;;;;;;;;;5069707;28;20643;-77
2023/01/26 05:44:37;;;;;;;14.77;9.03;;;;;;;;;;5072681;28;20206;-76
2023/01/26 05:47:04;;;;;;;16.13;9.43;;;;;;;;;;5062710;28;20293;-77
2023/01/26 05:49:32;;;;;;;15.60;8.93;;;;;;;;;;5063198;28;20274;-77
2023/01/26 05:51:59;;;;;;;15.80;9.33;;;;;;;;;;5057769;28;20226;-76
2023/01/26 05:54:26;;;;;;;16.37;9.60;;;;;;;;;;5042403;28;20220;-76
2023/01/26 05:56:54;;;;;;;18.83;10.30;;;;;;;;;;5043805;28;20217;-78
2023/01/26 05:59:21;;;;;;;20.80;10.67;;;;;;;;;;5035891;28;23348;-77
2023/01/26 06:01:49;;;;;;;15.10;9.50;;;;;;;;;;5046882;28;20866;-76
2023/01/26 06:04:16;;;;;;;17.23;10.67;;;;;;;;;;5040627;28;20217;-78
2023/01/26 06:06:44;;;;;;;16.80;9.60;;;;;;;;;;5048114;28;20220;-76
2023/01/26 06:09:11;;;;;;;15.13;9.20;;;;;;;;;;5041350;28;20220;-77
2023/01/26 06:11:38;;;;;;;15.23;8.70;;;;;;;;;;5046847;28;20233;-77
2023/01/26 06:14:06;;;;;;;19.33;10.30;;;;;;;;;;5041913;28;20221;-76
2023/01/26 06:16:33;;;;;;;18.90;11.37;;;;;;;;;;5046190;28;20300;-75
2023/01/26 06:19:00;;;;;;;19.10;9.70;;;;;;;;;;5041626;28;20663;-76
2023/01/26 06:21:27;;;;;;;18.40;10.13;;;;;;;;;;5042821;28;20241;-75
2023/01/26 06:23:54;;;;;;;18.00;10.13;;;;;;;;;;5024574;28;20215;-76
2023/01/26 06:26:23;;;;;;;18.37;11.73;;;;;;;;;;5046683;28;20221;-75
2023/01/26 06:28:51;;;;;;;17.80;10.80;;;;;;;;;;5037740;28;20220;-77
2023/01/26 06:31:19;;;;;;;16.63;9.77;;;;;;;;;;5044167;28;20232;-76
2023/01/26 06:33:46;;;;;;;18.83;11.20;;;;;;;;;;5042005;28;20296;-77
2023/01/26 06:36:14;;;;;;;18.93;11.20;;;;;;;;;;5044239;28;20802;-76
2023/01/26 06:38:46;;;;;;;17.33;9.93;;;;;;;;;;5025142;28;20299;-77
2023/01/26 06:41:13;;;;;;;14.60;8.77;;;;;;;;;;5043487;28;20229;-77
2023/01/26 06:43:44;;;;;;;16.43;9.80;;;;;;;;;;5040109;28;20209;-77
2023/01/26 06:46:11;;;;;;;24.67;17.13;;;;;;;;;;5045212;28;20228;-75
2023/01/26 06:48:39;;;;;;;18.40;9.43;;;;;;;;;;5041122;28;20501;-77
2023/01/26 06:51:06;;;;;;;16.43;8.60;;;;;;;;;;5043658;28;20236;-76
2023/01/26 06:53:38;;;;;;;15.23;8.10;;;;;;;;;;5041946;28;20672;-77
2023/01/26 06:56:05;;;;;;;18.10;9.93;;;;;;;;;;5021499;28;20209;-76
2023/01/26 06:58:33;;;;;;;19.40;9.10;;;;;;;;;;5043676;28;20208;-75
2023/01/26 07:01:00;;;;;;;13.70;8.50;;;;;;;;;;5038508;28;20323;-76
2023/01/26 07:03:27;;;;;;;15.67;9.13;;;;;;;;;;5038811;28;20229;-75
2023/01/26 07:05:55;;;;;;;16.57;10.40;;;;;;;;;;5039402;28;20208;-77
2023/01/26 07:08:22;;;;;;;17.60;10.83;;;;;;;;;;5049652;28;20632;-76
2023/01/26 07:10:50;;;;;;;21.17;11.97;;;;;;;;;;5043279;28;20228;-75
2023/01/26 07:13:17;;;;;;;16.57;9.97;;;;;;;;;;5050125;28;20207;-77
2023/01/26 07:15:44;;;;;;;19.60;10.00;;;;;;;;;;5041960;28;20436;-78
2023/01/26 07:18:11;;;;;;;14.87;9.13;;;;;;;;;;5049938;28;20208;-76
2023/01/26 07:20:38;;;;;;;14.37;9.53;;;;;;;;;;5041630;28;20246;-76
2023/01/26 07:23:06;;;;;;;16.17;9.90;;;;;;;;;;5030179;28;20209;-77
2023/01/26 07:25:33;;;;;;;16.77;8.03;;;;;;;;;;5053613;28;20670;-76
2023/01/26 07:28:00;;;;;;;14.50;8.03;;;;;;;;;;5048830;28;20232;-76
2023/01/26 07:30:27;;;;;;;17.43;9.97;;;;;;;;;;5044560;28;22715;-78
2023/01/26 07:32:54;;;;;;;12.07;8.03;;;;;;;;;;5031066;28;20313;-77
2023/01/26 07:35:21;;;;;;;15.20;7.97;;;;;;;;;;5063070;28;20200;-77
2023/01/26 07:37:49;;;;;;;16.03;8.67;;;;;;;;;;5076002;28;20211;-77
2023/01/26 07:40:16;;;;;;;18.50;10.63;;;;;;;;;;5067381;28;20201;-77
2023/01/26 07:42:43;;;;;;;19.73;10.40;;;;;;;;;;5049434;28;20212;-76
2023/01/26 07:45:11;;;;;;;14.37;8.53;;;;;;;;;;5065851;28;20687;-76
2023/01/26 07:47:38;;;;;;;15.13;8.50;;;;;;;;;;5057186;28;20320;-76
2023/01/26 07:50:06;;;;;;;13.10;8.37;;;;;;;;;;5048538;28;20207;-76
2023/01/26 07:52:33;;;;;;;12.53;7.63;;;;;;;;;;5027915;28;20239;-76
2023/01/26 07:55:00;;;;;;;10.63;6.80;;;;;;;;;;5045211;28;20658;-76
2023/01/26 07:57:27;;;;;;;10.47;5.90;;;;;;;;;;5046292;28;20792;-77
2023/01/26 07:59:54;;;;;;;12.37;6.90;;;;;;;;;;5044615;28;20438;-78
2023/01/26 08:02:21;;;;;;;12.43;7.70;;;;;;;;;;5045533;28;20239;-78
2023/01/26 08:04:49;;;;;;;12.67;7.13;;;;;;;;;;5055580;28;20210;-76
2023/01/26 08:07:16;;;;;;;41.60;14.87;;;;;;;;;;5065865;28;20254;-76
2023/01/26 08:09:43;;;;;;;16.30;8.57;;;;;;;;;;5066476;28;20289;-77
2023/01/26 08:12:11;;;;;;;15.53;8.97;;;;;;;;;;5068518;28;20304;-77
2023/01/26 08:14:38;;;;;;;19.47;9.83;;;;;;;;;;5082364;28;20672;-75
2023/01/26 08:17:16;;;;;;;22.93;13.17;;;;;;;;;;5049050;28;20215;-76
2023/01/26 08:19:43;;;;;;;19.63;12.30;;;;;;;;;;5047499;28;22867;-75
2023/01/26 08:22:10;;;;;;;9.87;6.23;;;;;;;;;;5051411;28;20240;-77
2023/01/26 08:24:37;;;;;;;9.40;6.60;;;;;;;;;;5045182;28;20992;-77
2023/01/26 08:27:05;;;;;;;12.87;7.70;;;;;;;;;;5061795;28;20293;-77
2023/01/26 08:29:32;;;;;;;12.13;8.23;;;;;;;;;;5071864;28;20271;-77
2023/01/26 08:31:59;;;;;;;8.70;6.13;;;;;;;;;;5067345;28;20324;-75
2023/01/26 08:34:26;;;;;;;9.47;6.17;;;;;;;;;;5048049;28;20201;-77
2023/01/26 08:36:54;;;;;;;11.10;6.13;;;;;;;;;;5045738;28;20214;-78
2023/01/26 08:39:21;;;;;;;10.63;7.07;;;;;;;;;;5045313;28;20251;-76
2023/01/26 08:41:48;;;;;;;10.57;6.83;;;;;;;;;;5036380;28;20229;-77
2023/01/26 08:44:15;;;;;;;10.23;6.53;;;;;;;;;;5040487;28;20212;-75
2023/01/26 08:46:43;;;;;;;8.87;5.40;;;;;;;;;;5037999;28;20250;-75
2023/01/26 08:49:10;;;;;;;6.20;4.93;;;;;;;;;;5046061;28;20209;-75
2023/01/26 08:51:38;;;;;;;6.80;5.20;;;;;;;;;;5043464;28;20234;-77
2023/01/26 08:54:07;;;;;;;6.27;4.90;;;;;;;;;;5041125;28;20216;-77
2023/01/26 08:56:34;;;;;;;8.50;5.60;;;;;;;;;;5023744;28;20206;-77
2023/01/26 08:59:01;;;;;;;7.57;4.97;;;;;;;;;;5041329;28;20270;-77
2023/01/26 09:01:29;;;;;;;7.07;5.40;;;;;;;;;;5038615;28;22946;-77
2023/01/26 09:03:57;;;;;;;8.53;5.43;;;;;;;;;;5048939;28;20200;-77
2023/01/26 09:06:26;;;;;;;7.50;5.30;;;;;;;;;;5041540;28;20205;-76
2023/01/26 09:08:53;;;;;;;7.23;5.47;;;;;;;;;;5043517;28;20970;-76
2023/01/26 09:11:20;;;;;;;7.33;5.07;;;;;;;;;;5046276;28;20237;-75
2023/01/26 09:13:57;;;;;;;7.13;5.03;;;;;;;;;;5042980;28;20204;-75
2023/01/26 09:16:24;;;;;;;8.17;5.50;;;;;;;;;;5050544;28;20294;-77
2023/01/26 09:18:52;;;;;;;8.13;5.63;;;;;;;;;;5026280;28;20666;-77
2023/01/26 09:21:20;;;;;;;6.83;4.80;;;;;;;;;;5046231;28;22141;-77
2023/01/26 09:23:47;;;;;;;6.67;5.00;;;;;;;;;;5039757;28;20198;-77
2023/01/26 09:26:14;;;;;;;6.70;5.37;;;;;;;;;;5033072;28;20230;-77
2023/01/26 09:28:42;;;;;;;7.30;5.37;;;;;;;;;;5023963;28;20225;-77
2023/01/26 09:31:10;;;;;;;8.03;5.77;;;;;;;;;;5047187;28;20238;-77
2023/01/26 09:33:37;;;;;;;7.37;5.67;;;;;;;;;;5034757;28;20237;-76
2023/01/26 09:36:05;;;;;;;8.50;6.07;;;;;;;;;;5073206;28;20570;-77
2023/01/26 09:38:33;;;;;;;9.60;6.20;;;;;;;;;;5084462;28;20233;-77
2023/01/26 09:41:06;;;;;;;10.03;6.63;;;;;;;;;;5066057;28;20228;-75
2023/01/26 09:43:42;;;;;;;15.10;10.37;;;;;;;;;;5049875;28;20202;-77
2023/01/26 09:46:17;;;;;;;9.53;6.43;;;;;;;;;;5049537;28;20246;-78
2023/01/26 09:48:50;;;;;;;7.77;5.80;;;;;;;;;;5045707;28;20299;-75
2023/01/26 09:51:22;;;;;;;8.03;5.73;;;;;;;;;;5046471;28;20221;-76
2023/01/26 09:53:55;;;;;;;9.33;6.57;;;;;;;;;;5042788;28;20209;-75
2023/01/26 09:56:25;;;;;;;10.27;7.33;;;;;;;;;;5028547;28;20670;-77
2023/01/26 09:58:58;;;;;;;11.70;7.13;;;;;;;;;;5028936;28;20213;-76
2023/01/26 10:01:45;;;;;;;9.63;6.37;;;;;;;;;;5038996;28;20237;-77
2023/01/26 10:04:24;;;;;;;13.27;7.73;;;;;;;;;;5002383;28;20576;-78
2023/01/26 10:06:53;;;;;;;10.07;6.80;;;;;;;;;;5045021;28;20205;-76
2023/01/26 10:09:26;;;;;;;11.67;7.20;;;;;;;;;;5029177;28;20210;-77
2023/01/26 10:11:59;;;;;;;10.17;7.17;;;;;;;;;;5040836;28;20213;-75
2023/01/26 10:14:39;;;;;;;9.50;6.77;;;;;;;;;;5049670;28;20208;-76
2023/01/26 10:17:11;;;;;;;9.43;6.57;;;;;;;;;;5052298;28;20212;-77
2023/01/26 10:19:42;;;;;;;9.07;7.00;;;;;;;;;;5050011;28;20213;-77
2023/01/26 10:22:15;;;;;;;11.53;7.10;;;;;;;;;;5045435;28;20232;-75
2023/01/26 10:24:46;;;;;;;10.47;7.13;;;;;;;;;;5051361;28;20212;-77
2023/01/26 10:27:14;;;;;;;11.43;7.23;;;;;;;;;;5045219;28;20221;-75
2023/01/26 10:29:41;;;;;;;10.43;7.93;;;;;;;;;;5046769;28;20194;-77
2023/01/26 10:32:18;;;;;;;10.23;7.13;;;;;;;;;;5040460;28;20319;-76
2023/01/26 10:34:47;;;;;;;12.33;8.13;;;;;;;;;;5042508;28;20229;-76
2023/01/26 10:37:22;;;;;;;11.03;7.43;;;;;;;;;;5037650;28;20238;-77
2023/01/26 10:40:16;;;;;;;11.67;7.40;;;;;;;;;;5042351;28;20212;-76
2023/01/26 10:42:53;;;;;;;10.30;6.80;;;;;;;;;;5044676;28;20275;-76
2023/01/26 10:45:25;;;;;;;10.13;6.90;;;;;;;;;;5032370;28;20205;-77
2023/01/26 10:48:14;;;;;;;9.97;6.67;;;;;;;;;;5033435;28;20221;-76
2023/01/26 10:50:41;;;;;;;9.33;6.63;;;;;;;;;;5050432;28;20216;-76
2023/01/26 10:53:14;;;;;;;10.67;6.90;;;;;;;;;;5046915;28;20207;-76
2023/01/26 10:55:41;;;;;;;11.77;7.70;;;;;;;;;;5048353;28;20201;-77
2023/01/26 10:58:27;;;;;;;9.13;6.40;;;;;;;;;;5041617;28;20218;-78
2023/01/26 11:00:55;;;;;;;7.60;5.77;;;;;;;;;;5044823;28;20247;-76
2023/01/26 11:03:27;;;;;;;8.63;6.67;;;;;;;;;;5050363;28;20210;-76
2023/01/26 11:06:14;;;;;;;10.53;6.60;;;;;;;;;;5042290;28;20270;-76
2023/01/26 11:08:42;;;;;;;12.50;7.23;;;;;;;;;;5037327;28;20356;-76
2023/01/26 11:11:23;;;;;;;9.23;7.50;;;;;;;;;;5043821;28;20236;-76
2023/01/26 11:14:09;;;;;;;9.03;6.80;;;;;;;;;;5040768;28;20289;-75
2023/01/26 11:16:37;;;;;;;8.63;6.30;;;;;;;;;;5044879;28;20200;-76
2023/01/26 11:19:21;;;;;;;14.73;7.53;;;;;;;;;;5037769;28;20210;-76
2023/01/26 11:22:14;;;;;;;16.20;7.90;;;;;;;;;;5046762;28;20230;-76
2023/01/26 11:24:51;;;;;;;13.63;8.00;;;;;;;;;;5041972;28;20213;-77
2023/01/26 11:27:18;;;;;;;12.50;8.10;;;;;;;;;;5059195;28;20360;-74
2023/01/26 11:30:05;;;;;;;14.43;8.60;;;;;;;;;;5058996;28;20229;-74
2023/01/26 11:32:32;;;;;;;11.20;8.23;;;;;;;;;;5057985;28;20328;-76
2023/01/26 11:35:13;;;;;;;13.17;8.50;;;;;;;;;;5065623;28;20272;-77
2023/01/26 11:37:47;;;;;;;13.80;9.03;;;;;;;;;;5057917;28;20231;-77
2023/01/26 11:40:24;;;;;;;14.30;7.90;;;;;;;;;;5053359;28;20213;-77
2023/01/26 11:42:51;;;;;;;11.37;8.07;;;;;;;;;;5056094;28;20227;-76
2023/01/26 11:45:32;;;;;;;15.63;9.23;;;;;;;;;;5054712;28;20201;-75
2023/01/26 11:48:18;;;;;;;13.87;8.23;;;;;;;;;;5056658;28;20235;-75
2023/01/26 11:50:55;;;;;;;15.03;8.43;;;;;;;;;;5058544;28;20605;-74
2023/01/26 11:53:34;;;;;;;14.50;8.87;;;;;;;;;;5055747;28;20196;-76
2023/01/26 11:56:20;;;;;;;24.80;9.70;;;;;;;;;;5060320;28;20212;-75
2023/01/26 11:58:55;;;;;;;14.33;9.40;;;;;;;;;;5054691;28;20460;-76
2023/01/26 12:01:27;;;;;;;12.93;8.70;;;;;;;;;;5051002;28;20237;-77
2023/01/26 12:03:55;;;;;;;14.83;9.13;;;;;;;;;;5043217;28;20796;-76
2023/01/26 12:06:22;;;;;;;12.97;8.23;;;;;;;;;;5051500;28;20202;-75
2023/01/26 12:08:49;;;;;;;18.90;9.70;;;;;;;;;;5047423;28;20229;-74
2023/01/26 12:11:38;;;;;;;14.47;9.00;;;;;;;;;;5057434;28;20220;-76
2023/01/26 12:14:12;;;;;;;10.40;7.20;;;;;;;;;;5056079;28;20208;-76
2023/01/26 12:16:44;;;;;;;12.10;8.30;;;;;;;;;;5049763;28;21011;-77
2023/01/26 12:19:14;;;;;;;13.53;8.40;;;;;;;;;;5053687;28;20228;-75
2023/01/26 12:21:44;;;;;;;16.07;8.43;;;;;;;;;;5053268;28;20334;-75
2023/01/26 12:24:43;;;;;;;11.73;7.97;;;;;;;;;;5049042;28;20224;-75
2023/01/26 12:27:51;;;;;;;13.40;9.13;;;;;;;;;;5029770;28;20212;-74
2023/01/26 12:30:18;;;;;;;11.83;7.93;;;;;;;;;;4993940;28;20216;-75
2023/01/26 12:32:45;;;;;;;11.30;7.83;;;;;;;;;;5050046;28;20247;-75
2023/01/26 12:35:13;;;;;;;17.70;8.60;;;;;;;;;;5047368;28;20212;-75
2023/01/26 12:38:02;;;;;;;13.10;8.87;;;;;;;;;;5048213;28;21081;-75
2023/01/26 12:40:51;;;;;;;12.20;8.03;;;;;;;;;;5052186;28;20238;-74
2023/01/26 12:43:30;;;;;;;12.93;8.53;;;;;;;;;;5047245;28;20711;-77
2023/01/26 12:45:57;;;;;;;14.30;8.43;;;;;;;;;;5043065;28;20213;-76
2023/01/26 12:48:49;;;;;;;12.57;8.33;;;;;;;;;;5046720;28;20230;-75
2023/01/26 12:51:22;;;;;;;12.07;8.43;;;;;;;;;;5043709;28;21794;-75
2023/01/26 12:53:59;;;;;;;15.87;9.50;;;;;;;;;;5050360;28;20198;-75
2023/01/26 12:56:26;;;;;;;12.50;7.90;;;;;;;;;;5051206;28;20228;-75
2023/01/26 12:58:55;;;;;;;13.13;8.20;;;;;;;;;;5046564;28;20868;-75
2023/01/26 13:01:25;;;;;;;13.00;8.47;;;;;;;;;;5050954;28;20284;-76
2023/01/26 13:03:57;;;;;;;15.70;8.63;;;;;;;;;;5049302;28;20312;-74
2023/01/26 13:06:25;;;;;;;16.13;9.97;;;;;;;;;;5049459;28;20213;-76
2023/01/26 13:09:03;;;;;;;16.67;9.97;;;;;;;;;;5028603;28;20220;-74
2023/01/26 13:11:44;;;;;;;19.30;10.90;;;;;;;;;;5048528;28;20241;-76
2023/01/26 13:14:23;;;;;;;15.77;8.93;;;;;;;;;;5041831;28;20216;-76
2023/01/26 13:16:51;;;;;;;18.60;9.87;;;;;;;;;;5046550;28;20197;-76
2023/01/26 13:19:36;;;;;;;19.57;10.13;;;;;;;;;;5043685;28;20212;-76
2023/01/26 13:22:03;;;;;;;17.17;11.37;;;;;;;;;;5036036;28;20853;-76
2023/01/26 13:24:30;;;;;;;24.77;11.47;;;;;;;;;;5040820;28;20201;-76
2023/01/26 13:26:59;;;;;;;20.80;10.93;;;;;;;;;;5043222;28;20210;-75
2023/01/26 13:29:26;;;;;;;20.53;11.27;;;;;;;;;;5043287;28;20390;-77
2023/01/26 13:31:55;;;;;;;31.33;12.07;;;;;;;;;;5027786;28;20241;-73
2023/01/26 13:34:34;;;;;;;38.37;11.97;;;;;;;;;;5066622;28;20301;-76
2023/01/26 13:37:08;;;;;;;30.33;11.97;;;;;;;;;;5061345;28;20235;-76
2023/01/26 13:39:37;;;;;;;54.80;13.60;;;;;;;;;;5049022;28;20213;-76
2023/01/26 13:42:14;;;;;;;22.60;12.10;;;;;;;;;;5077803;28;20715;-77
2023/01/26 13:44:44;;;;;;;27.27;12.47;;;;;;;;;;5049519;28;20213;-77
2023/01/26 13:47:17;;;;;;;38.10;12.80;;;;;;;;;;5051633;28;20205;-75
2023/01/26 13:49:49;;;;;;;41.40;15.20;;;;;;;;;;5027901;28;20228;-74
2023/01/26 13:52:21;;;;;;;31.30;12.67;;;;;;;;;;5035892;28;20288;-75
2023/01/26 13:54:49;;;;;;;35.17;11.53;;;;;;;;;;5039528;28;20211;-76
2023/01/26 13:57:24;;;;;;;32.00;13.10;;;;;;;;;;5023710;28;20206;-77
2023/01/26 13:59:52;;;;;;;27.60;11.80;;;;;;;;;;5034915;28;20213;-77
2023/01/26 14:02:33;;;;;;;21.87;12.20;;;;;;;;;;5045434;28;20299;-75
2023/01/26 14:05:02;;;;;;;26.63;12.80;;;;;;;;;;5048149;28;20222;-74
2023/01/26 14:07:35;;;;;;;27.83;12.63;;;;;;;;;;5026433;28;20326;-77
2023/01/26 14:10:03;;;;;;;24.77;12.30;;;;;;;;;;5047288;28;20224;-74
2023/01/26 14:12:33;;;;;;;34.30;11.67;;;;;;;;;;5044097;28;20658;-76
2023/01/26 14:15:05;;;;;;;23.93;11.97;;;;;;;;;;5028796;28;20212;-77
2023/01/26 14:17:35;;;;;;;22.57;12.10;;;;;;;;;;5048268;28;20294;-76
2023/01/26 14:20:16;;;;;;;23.53;12.57;;;;;;;;;;5040855;28;20222;-73
2023/01/26 14:22:47;;;;;;;25.93;13.13;;;;;;;;;;5044102;28;20204;-75
2023/01/26 14:25:19;;;;;;;25.73;11.57;;;;;;;;;;5047320;28;20235;-74
2023/01/26 14:27:46;;;;;;;25.17;13.80;;;;;;;;;;5045654;28;20216;-74
2023/01/26 14:30:30;;;;;;;24.97;12.67;;;;;;;;;;5041593;28;20204;-77
2023/01/26 14:33:03;;;;;;;21.83;12.23;;;;;;;;;;5042023;28;20216;-77
2023/01/26 14:35:31;;;;;;;20.93;11.77;;;;;;;;;;5044241;28;20205;-76
2023/01/26 14:38:10;;;;;;;21.60;11.57;;;;;;;;;;5040409;28;20677;-76
2023/01/26 14:40:51;;;;;;;20.67;11.67;;;;;;;;;;5036406;28;20645;-74
2023/01/26 14:43:18;;;;;;;21.63;11.00;;;;;;;;;;5036467;28;20210;-74
2023/01/26 14:45:49;;;;;;;23.20;11.97;;;;;;;;;;5039462;28;20669;-76
2023/01/26 14:48:18;;;;;;;20.40;11.10;;;;;;;;;;5038045;28;20224;-74
2023/01/26 14:50:46;;;;;;;19.90;10.70;;;;;;;;;;5037393;28;20219;-74
2023/01/26 14:53:21;;;;;;;20.03;11.00;;;;;;;;;;5036345;28;20745;-74
2023/01/26 14:55:49;;;;;;;23.17;11.97;;;;;;;;;;5016410;28;20203;-76
2023/01/26 14:58:31;;;;;;;28.07;15.23;;;;;;;;;;5035739;28;20567;-76
2023/01/26 15:00:59;;;;;;;19.33;10.90;;;;;;;;;;5040153;28;20255;-76
2023/01/26 15:03:28;;;;;;;20.50;11.33;;;;;;;;;;5033588;28;20216;-77
2023/01/26 15:06:17;;;;;;;20.43;11.83;;;;;;;;;;5038011;28;20208;-75
2023/01/26 15:09:04;;;;;;;19.67;11.27;;;;;;;;;;5043097;28;20219;-72
2023/01/26 15:14:31;;;;;;;21.33;12.00;;;;;;;;;;5047365;28;20697;-77
2023/01/26 15:16:58;;;;;;;23.73;12.17;;;;;;;;;;5046077;28;20208;-76
2023/01/26 15:19:26;;;;;;;19.17;10.73;;;;;;;;;;5049963;28;20213;-77
2023/01/26 15:21:53;;;;;;;19.57;11.10;;;;;;;;;;5040760;28;20234;-77
2023/01/26 15:24:20;;;;;;;19.73;10.87;;;;;;;;;;5047122;28;20259;-76
2023/01/26 15:26:50;;;;;;;19.60;11.17;;;;;;;;;;5049548;28;20302;-77
2023/01/26 15:29:22;;;;;;;19.07;11.00;;;;;;;;;;5047307;28;20236;-77
2023/01/26 15:31:54;;;;;;;16.63;10.17;;;;;;;;;;5045373;28;20251;-77
2023/01/26 15:34:30;;;;;;;19.77;10.90;;;;;;;;;;5069385;28;20258;-76